EW1340 Weather Reports


Display with metric or nautical units.
time (UTC)temp
F
wind
direction
speed
MPH
gust
MPH
rain 1hr
in
rain 24hr
in
rain mn
in
humidity
%
barometer
mb
20210926033053 63 24 0.0 6.0 0.00 0.00 0.00 88 1018.7
20210926030052 64 282 0.0 0.0 0.00 0.00 0.00 90 1018.6
20210926023147 64 282 0.0 0.0 0.00 0.00 0.00 88 1018.3
20210926021546 64 282 0.0 0.0 0.00 0.00 0.00 87 1018.2
20210926014651 65 282 0.0 0.0 0.00 0.00 0.00 86 1018.1
20210926013039 66 280 0.0 0.0 0.00 0.00 0.00 84 1017.9
20210926003050 71 285 0.0 0.0 0.00 0.00 0.00 70 1017.7
20210926000047 72 291 0.0 2.0 0.00 0.00 0.00 66 1017.6
20210925234544 73 280 0.0 3.0 0.00 0.00 0.00 66 1017.6
20210925231617 74 230 2.0 5.0 0.00 0.00 0.00 63 1017.5
20210925230013 74 236 3.0 7.0 0.00 0.00 0.00 61 1017.5
20210925223037 75 214 3.0 7.0 0.00 0.00 0.00 56 1017.4
20210925220208 75 231 5.0 11.0 0.00 0.00 0.00 57 1017.4
20210925213110 76 212 4.0 9.0 0.00 0.00 0.00 54 1017.5
20210925210106 76 212 2.0 7.0 0.00 0.00 0.00 54 1017.5
20210925203054 76 210 3.0 9.0 0.00 0.00 0.00 53 1017.5
20210925200042 75 135 1.0 8.0 0.00 0.00 0.00 54 1017.7
20210925193030 75 289 4.0 11.0 0.00 0.00 0.00 55 1017.9
20210925190053 75 226 3.0 8.0 0.00 0.00 0.00 54 1018.2
20210925183137 74 139 2.0 10.0 0.00 0.00 0.00 55 1018.7
20210925180125 73 276 1.0 11.0 0.00 0.00 0.00 56 1019.1
20210925174530 73 310 1.0 8.0 0.00 0.00 0.00 57 1019.4
20210925171559 72 224 3.0 8.0 0.00 0.00 0.00 59 1019.9
20210925164603 71 220 6.0 12.0 0.00 0.00 0.00 63 1019.9
20210925163005 70 258 5.0 9.0 0.00 0.00 0.00 62 1020.1
20210925161613 70 224 4.0 9.0 0.00 0.00 0.00 64 1020.1
20210925160011 69 237 3.0 10.0 0.00 0.00 0.00 65 1020.5
20210925153044 68 197 4.0 11.0 0.00 0.00 0.00 66 1020.5
20210925150036 67 230 4.0 9.0 0.00 0.00 0.00 70 1020.4
20210925143138 64 243 4.0 7.0 0.00 0.00 0.00 78 1020.4
20210925141518 63 244 3.0 8.0 0.00 0.00 0.00 79 1020.3
20210925140049 62 215 4.0 6.0 0.00 0.00 0.00 80 1020.0
20210925133152 58 162 0.0 0.0 0.00 0.00 0.00 90 1019.8
20210925130049 55 331 0.0 0.0 0.00 0.00 0.00 94 1019.9
20210925123129 53 326 0.0 0.0 0.00 0.00 0.00 95 1019.5
20210925120357 52 319 0.0 0.0 0.00 0.00 0.00 95 1019.5
20210925114523 52 319 0.0 1.0 0.00 0.00 0.00 94 1019.5
20210925113046 52 319 0.0 0.0 0.00 0.00 0.00 94 1019.4
20210925110226 53 319 0.0 1.0 0.00 0.00 0.00 94 1019.1
20210925104529 53 319 0.0 1.0 0.00 0.00 0.00 94 1019.0
20210925101550 53 319 0.0 0.0 0.00 0.00 0.00 93 1018.8
20210925094545 54 319 0.0 0.0 0.00 0.00 0.00 93 1018.6
20210925093046 54 319 0.0 0.0 0.00 0.00 0.00 93 1018.6
20210925091506 54 319 0.0 0.0 0.00 0.00 0.00 93 1018.6
20210925090203 55 319 0.0 1.0 0.00 0.00 0.00 93 1018.7
20210925084540 55 319 0.0 0.0 0.00 0.00 0.00 93 1018.7
20210925081556 55 319 0.0 1.0 0.00 0.00 0.00 93 1018.7
20210925080043 55 319 0.0 1.0 0.00 0.00 0.00 93 1018.5
20210925073051 55 319 0.0 1.0 0.00 0.00 0.00 93 1018.6
20210925070059 55 319 0.0 1.0 0.00 0.00 0.00 93 1018.6
20210925063128 55 306 1.0 3.0 0.00 0.00 0.00 92 1018.5
20210925060046 56 305 0.0 1.0 0.00 0.00 0.00 92 1018.5
20210925054506 56 305 0.0 0.0 0.00 0.00 0.00 92 1018.7
20210925053058 56 305 0.0 1.0 0.00 0.00 0.00 92 1018.7
20210925051510 56 305 0.0 1.0 0.00 0.00 0.00 91 1018.6
20210925050135 57 305 0.0 2.0 0.00 0.00 0.00 92 1018.5
20210925044547 57 305 0.0 1.0 0.00 0.00 0.00 92 1018.7
20210925041630 56 305 0.0 1.0 0.00 0.00 0.00 91 1018.6
20210925040009 57 305 0.0 0.0 0.00 0.00 0.00 91 1018.5
20210925034514 57 305 0.0 0.0 0.00 0.00 0.00 90 1018.6